createdAt,value
2022-10-01T00:01:52.194Z,5.43
2022-10-01T00:04:19.577Z,7.60
2022-10-01T00:06:46.364Z,10.20
2022-10-01T00:09:13.229Z,8.98
2022-10-01T00:11:41.211Z,9.02
2022-10-01T00:14:08.363Z,7.68
2022-10-01T00:16:35.381Z,5.35
2022-10-01T00:19:02.237Z,9.15
2022-10-01T00:21:31.997Z,7.22
2022-10-01T00:24:02.222Z,5.85
2022-10-01T00:26:34.343Z,6.90
2022-10-01T00:29:08.434Z,8.20
2022-10-01T00:31:35.593Z,6.75
2022-10-01T00:34:03.784Z,10.60
2022-10-01T00:36:31.751Z,9.10
2022-10-01T00:39:00.602Z,9.48
2022-10-01T00:41:29.850Z,10.35
2022-10-01T00:44:00.195Z,8.68
2022-10-01T00:46:40.910Z,8.98
2022-10-01T00:49:21.606Z,9.90
2022-10-01T00:51:52.499Z,11.18
2022-10-01T00:54:44.881Z,9.95
2022-10-01T00:57:16.095Z,8.98
2022-10-01T00:59:43.266Z,8.88
2022-10-01T01:02:11.194Z,7.25
2022-10-01T01:04:40.255Z,8.73
2022-10-01T01:07:07.876Z,10.95
2022-10-01T01:09:38.088Z,10.05
2022-10-01T01:12:24.794Z,10.95
2022-10-01T01:15:11.773Z,9.40
2022-10-01T01:17:38.510Z,12.45
2022-10-01T01:20:32.151Z,9.50
2022-10-01T01:25:59.118Z,11.63
2022-10-01T01:28:38.879Z,9.30
2022-10-01T01:31:10.624Z,9.93
2022-10-01T01:33:40.243Z,8.85
2022-10-01T01:36:17.747Z,8.63
2022-10-01T01:38:49.680Z,12.32
2022-10-01T01:41:20.188Z,11.38
2022-10-01T01:43:51.865Z,12.45
2022-10-01T01:46:20.882Z,11.85
2022-10-01T01:48:53.314Z,9.75
2022-10-01T01:51:33.479Z,10.80
2022-10-01T01:54:00.740Z,14.52
2022-10-01T01:56:27.729Z,11.93
2022-10-01T01:58:54.583Z,14.38
2022-10-01T02:01:34.670Z,12.52
2022-10-01T02:04:06.826Z,15.02
2022-10-01T02:06:41.095Z,11.90
2022-10-01T02:09:22.159Z,16.70
2022-10-01T02:12:15.706Z,13.75
2022-10-01T02:14:54.841Z,10.00
2022-10-01T02:17:59.314Z,10.85
2022-10-01T02:20:36.071Z,12.45
2022-10-01T02:23:09.880Z,14.02
2022-10-01T02:25:46.680Z,11.63
2022-10-01T02:28:18.329Z,10.73
2022-10-01T02:30:45.918Z,10.63
2022-10-01T02:33:18.215Z,9.98
2022-10-01T02:35:47.080Z,10.88
2022-10-01T02:38:16.724Z,10.00
2022-10-01T02:40:46.371Z,14.05
2022-10-01T02:43:18.908Z,8.65
2022-10-01T02:45:50.531Z,13.40
2022-10-01T02:48:18.073Z,11.43
2022-10-01T02:50:52.578Z,9.15
2022-10-01T02:53:42.315Z,9.82
2022-10-01T02:56:10.232Z,9.45
2022-10-01T02:58:37.046Z,10.18
2022-10-01T03:01:03.906Z,10.55
2022-10-01T03:03:31.667Z,10.65
2022-10-01T03:05:58.421Z,8.63
2022-10-01T03:08:25.232Z,7.85
2022-10-01T03:10:52.109Z,7.68
2022-10-01T03:13:19.766Z,9.52
2022-10-01T03:15:47.270Z,8.00
2022-10-01T03:18:14.123Z,8.30
2022-10-01T03:20:40.914Z,5.97
2022-10-01T03:23:07.679Z,5.70
2022-10-01T03:25:34.526Z,6.47
2022-10-01T03:28:01.585Z,6.55
2022-10-01T03:30:28.420Z,6.38
2022-10-01T03:32:55.181Z,6.57
2022-10-01T03:35:22.865Z,5.20
2022-10-01T03:37:49.743Z,7.05
2022-10-01T03:40:16.575Z,6.72
2022-10-01T03:42:43.331Z,4.40
2022-10-01T03:45:10.396Z,5.07
2022-10-01T03:47:37.184Z,5.32
2022-10-01T03:50:04.375Z,5.65
2022-10-01T03:52:31.153Z,4.18
2022-10-01T03:54:57.917Z,4.15
2022-10-01T03:57:24.665Z,3.22
2022-10-01T03:59:51.447Z,6.25
2022-10-01T04:02:18.402Z,4.55
2022-10-01T04:04:45.336Z,5.55
2022-10-01T04:07:12.092Z,4.68
2022-10-01T04:09:38.923Z,5.18
2022-10-01T04:12:05.985Z,3.40
2022-10-01T04:14:32.758Z,3.85
2022-10-01T04:16:59.742Z,4.00
2022-10-01T04:19:26.567Z,3.75
2022-10-01T04:21:53.369Z,4.65
2022-10-01T04:24:20.162Z,4.15
2022-10-01T04:26:47.041Z,4.40
2022-10-01T04:29:13.896Z,3.47
2022-10-01T04:31:40.716Z,3.97
2022-10-01T04:34:07.675Z,2.90
2022-10-01T04:36:34.665Z,3.53
2022-10-01T04:39:02.827Z,4.53
2022-10-01T04:41:31.390Z,4.65
2022-10-01T04:44:00.052Z,3.38
2022-10-01T04:46:28.322Z,3.80
2022-10-01T04:48:55.140Z,3.47
2022-10-01T04:51:22.073Z,3.72
2022-10-01T04:53:49.274Z,2.95
2022-10-01T04:56:16.187Z,3.45
2022-10-01T04:58:42.956Z,3.53
2022-10-01T05:01:09.784Z,2.65
2022-10-01T05:03:36.619Z,2.53
2022-10-01T05:06:03.734Z,2.45
2022-10-01T05:08:31.228Z,5.07
2022-10-01T05:11:00.370Z,2.85
2022-10-01T05:13:30.063Z,3.75
2022-10-01T05:15:57.726Z,4.00
2022-10-01T05:18:24.784Z,3.20
2022-10-01T05:20:51.536Z,2.90
2022-10-01T05:23:18.312Z,3.30
2022-10-01T05:25:46.955Z,2.95
2022-10-01T05:28:18.321Z,2.38
2022-10-01T05:30:48.089Z,2.78
2022-10-01T05:33:14.864Z,3.58
2022-10-01T05:35:41.706Z,2.97
2022-10-01T05:38:08.469Z,2.55
2022-10-01T05:40:35.481Z,2.50
2022-10-01T05:43:04.333Z,3.20
2022-10-01T05:45:32.113Z,3.10
2022-10-01T05:47:59.961Z,2.90
2022-10-01T05:50:27.794Z,3.05
2022-10-01T05:52:54.708Z,3.10
2022-10-01T05:55:22.406Z,3.70
2022-10-01T05:58:04.082Z,4.43
2022-10-01T06:00:31.937Z,3.60
2022-10-01T06:03:00.411Z,3.13
2022-10-01T06:05:28.798Z,3.78
2022-10-01T06:07:56.499Z,3.17
2022-10-01T06:10:24.587Z,3.45
2022-10-01T06:12:51.729Z,5.72
2022-10-01T06:15:18.716Z,4.25
2022-10-01T06:17:45.536Z,4.03
2022-10-01T06:20:14.007Z,4.45
2022-10-01T06:22:42.954Z,4.60
2022-10-01T06:25:15.240Z,4.93
2022-10-01T06:27:42.748Z,7.00
2022-10-01T06:30:10.308Z,6.25
2022-10-01T06:32:37.094Z,8.25
2022-10-01T06:35:04.668Z,8.32
2022-10-01T06:37:31.472Z,10.25
2022-10-01T06:39:58.264Z,5.50
2022-10-01T06:42:25.102Z,5.25
2022-10-01T06:44:51.915Z,7.53
2022-10-01T06:47:18.736Z,6.97
2022-10-01T06:49:47.677Z,7.93
2022-10-01T06:52:33.729Z,9.63
2022-10-01T06:55:01.685Z,6.75
2022-10-01T06:57:29.141Z,10.95
2022-10-01T06:59:57.974Z,10.82
2022-10-01T07:02:30.304Z,7.03
2022-10-01T07:05:00.311Z,7.10
2022-10-01T07:07:31.409Z,9.45
2022-10-01T07:09:59.146Z,8.30
2022-10-01T07:12:26.707Z,11.13
2022-10-01T07:14:54.575Z,9.65
2022-10-01T07:17:22.388Z,7.78
2022-10-01T07:19:49.276Z,12.75
2022-10-01T07:22:18.020Z,10.85
2022-10-01T07:24:45.756Z,11.73
2022-10-01T07:27:13.724Z,8.20
2022-10-01T07:29:41.760Z,10.13
2022-10-01T07:32:10.385Z,14.15
2022-10-01T07:34:41.870Z,11.18
2022-10-01T07:37:09.493Z,13.23
2022-10-01T07:39:37.037Z,13.57
2022-10-01T07:42:04.679Z,18.08
2022-10-01T07:44:31.471Z,14.02
2022-10-01T07:46:58.309Z,17.65
2022-10-01T07:49:26.027Z,9.77
2022-10-01T07:51:54.433Z,15.77
2022-10-01T07:54:22.601Z,12.88
2022-10-01T07:56:52.925Z,9.75
2022-10-01T07:59:19.792Z,12.23
2022-10-01T08:01:51.690Z,21.23
2022-10-01T08:04:38.162Z,12.52
2022-10-01T08:07:06.025Z,17.13
2022-10-01T08:09:32.821Z,18.95
2022-10-01T08:11:59.668Z,16.10
2022-10-01T08:14:28.271Z,17.00
2022-10-01T08:16:56.380Z,12.30
2022-10-01T08:19:23.312Z,19.85
2022-10-01T08:21:50.157Z,11.30
2022-10-01T08:24:17.865Z,12.88
2022-10-01T08:26:44.867Z,13.00
2022-10-01T08:29:16.879Z,16.40
2022-10-01T08:31:43.930Z,16.90
2022-10-01T08:34:10.744Z,16.00
2022-10-01T08:36:37.865Z,14.20
2022-10-01T08:39:04.738Z,19.02
2022-10-01T08:41:43.148Z,12.88
2022-10-01T08:44:21.712Z,13.70
2022-10-01T08:46:50.489Z,15.23
2022-10-01T08:49:26.705Z,12.02
2022-10-01T08:52:23.291Z,13.80
2022-10-01T08:54:53.066Z,15.13
2022-10-01T08:57:34.701Z,13.13
2022-10-01T09:00:10.514Z,17.25
2022-10-01T09:02:42.340Z,14.60
2022-10-01T09:05:39.097Z,18.60
2022-10-01T09:08:43.784Z,13.65
2022-10-01T09:11:38.693Z,17.50
2022-10-01T09:14:25.052Z,12.80
2022-10-01T09:16:58.461Z,12.32
2022-10-01T09:19:47.895Z,13.63
2022-10-01T09:22:35.307Z,10.57
2022-10-01T09:25:23.538Z,20.30
2022-10-01T09:27:52.671Z,8.27
2022-10-01T09:30:27.121Z,7.82
2022-10-01T09:33:02.285Z,17.77
2022-10-01T09:35:45.187Z,14.32
2022-10-01T09:38:16.087Z,10.45
2022-10-01T09:41:04.053Z,9.65
2022-10-01T09:43:33.789Z,11.50
2022-10-01T09:46:02.548Z,13.00
2022-10-01T09:49:05.741Z,7.32
2022-10-01T09:51:46.351Z,12.18
2022-10-01T09:54:32.855Z,8.00
2022-10-01T09:57:24.679Z,5.55
2022-10-01T10:00:16.532Z,8.45
2022-10-01T10:02:49.625Z,8.68
2022-10-01T10:05:23.740Z,8.27
2022-10-01T10:07:58.587Z,6.20
2022-10-01T10:10:35.444Z,6.97
2022-10-01T10:13:11.127Z,6.57
2022-10-01T10:15:43.201Z,10.00
2022-10-01T10:18:22.987Z,7.93
2022-10-01T10:20:53.969Z,2.95
2022-10-01T10:23:25.118Z,4.75
2022-10-01T10:26:42.586Z,5.10
2022-10-01T10:29:27.345Z,5.57
2022-10-01T10:31:55.409Z,7.15
2022-10-01T10:34:40.691Z,5.18
2022-10-01T10:37:17.189Z,6.25
2022-10-01T10:39:51.063Z,5.25
2022-10-01T10:42:19.746Z,5.30
2022-10-01T10:44:49.337Z,6.20
2022-10-01T10:47:19.197Z,7.20
2022-10-01T10:50:00.783Z,5.15
2022-10-01T10:52:30.523Z,5.60
2022-10-01T10:54:59.373Z,11.02
2022-10-01T10:57:28.517Z,5.18
2022-10-01T10:59:59.569Z,8.25
2022-10-01T11:02:31.797Z,9.30
2022-10-01T11:05:03.836Z,6.15
2022-10-01T11:07:31.518Z,6.50
2022-10-01T11:10:04.070Z,9.80
2022-10-01T11:12:38.479Z,7.63
2022-10-01T11:15:35.054Z,8.57
2022-10-01T11:18:13.968Z,7.85
2022-10-01T11:21:10.521Z,6.70
2022-10-01T11:23:56.983Z,5.43
2022-10-01T11:26:44.982Z,4.63
2022-10-01T11:29:30.336Z,3.88
2022-10-01T11:32:09.130Z,4.38
2022-10-01T11:34:54.345Z,3.80
2022-10-01T11:37:36.193Z,7.53
2022-10-01T11:40:13.501Z,5.82
2022-10-01T11:42:43.049Z,7.28
2022-10-01T11:45:21.431Z,5.88
2022-10-01T11:47:59.364Z,6.30
2022-10-01T11:50:33.424Z,10.23
2022-10-01T11:53:11.396Z,9.82
2022-10-01T11:56:16.594Z,7.03
2022-10-01T11:58:53.063Z,5.45
2022-10-01T12:01:41.684Z,7.25
2022-10-01T12:04:38.356Z,11.82
2022-10-01T12:07:25.098Z,8.13
2022-10-01T12:09:54.913Z,6.28
2022-10-01T12:12:37.720Z,6.20
2022-10-01T12:15:19.212Z,4.95
2022-10-01T12:18:01.496Z,8.35
2022-10-01T12:20:42.039Z,7.65
2022-10-01T12:23:15.424Z,6.05
2022-10-01T12:25:56.742Z,4.85
2022-10-01T12:28:46.806Z,11.00
2022-10-01T12:31:43.755Z,7.15
2022-10-01T12:34:22.685Z,13.10
2022-10-01T12:37:07.425Z,10.20
2022-10-01T12:39:40.089Z,21.75
2022-10-01T12:42:31.348Z,10.88
2022-10-01T12:45:17.475Z,10.57
2022-10-01T12:47:59.877Z,10.48
2022-10-01T12:50:54.334Z,12.55
2022-10-01T12:53:33.296Z,9.18
2022-10-01T12:56:33.915Z,7.18
2022-10-01T12:59:21.288Z,13.00
2022-10-01T13:01:48.166Z,13.60
2022-10-01T13:04:44.700Z,11.98
2022-10-01T13:07:24.934Z,13.27
2022-10-01T13:10:11.660Z,9.52
2022-10-01T13:12:43.420Z,15.05
2022-10-01T13:15:27.855Z,8.50
2022-10-01T13:18:25.801Z,6.93
2022-10-01T13:21:05.695Z,11.20
2022-10-01T13:23:39.424Z,16.50
2022-10-01T13:26:28.003Z,15.90
2022-10-01T13:29:16.143Z,15.40
2022-10-01T13:31:58.253Z,9.10
2022-10-01T13:34:36.541Z,13.95
2022-10-01T13:37:38.338Z,10.98
2022-10-01T13:40:31.241Z,12.98
2022-10-01T13:43:20.279Z,10.52
2022-10-01T13:45:50.201Z,16.00
2022-10-01T13:48:21.027Z,10.75
2022-10-01T13:51:05.304Z,8.88
2022-10-01T13:53:56.400Z,12.73
2022-10-01T13:56:35.227Z,12.85
2022-10-01T13:59:03.199Z,11.77
2022-10-01T14:01:42.028Z,15.20
2022-10-01T14:04:27.442Z,14.52
2022-10-01T14:06:59.725Z,15.43
2022-10-01T14:09:29.841Z,12.85
2022-10-01T14:12:18.197Z,16.13
2022-10-01T14:15:18.914Z,13.25
2022-10-01T14:17:50.430Z,12.38
2022-10-01T14:20:24.146Z,15.30
2022-10-01T14:23:12.791Z,12.90
2022-10-01T14:25:53.699Z,14.45
2022-10-01T14:28:58.184Z,24.38
2022-10-01T14:31:51.338Z,11.55
2022-10-01T14:34:24.256Z,13.57
2022-10-01T14:36:53.411Z,18.58
2022-10-01T14:39:26.468Z,14.82
2022-10-01T14:44:27.216Z,12.60
2022-10-01T14:46:58.919Z,11.40
2022-10-01T14:49:31.138Z,14.82
2022-10-01T14:52:07.027Z,9.73
2022-10-01T14:54:51.577Z,19.05
2022-10-01T14:57:34.843Z,14.25
2022-10-01T15:02:32.708Z,19.77
2022-10-01T15:05:00.390Z,18.05
2022-10-01T15:07:35.005Z,18.77
2022-10-01T15:10:08.583Z,17.98
2022-10-01T15:12:41.394Z,14.45
2022-10-01T15:15:25.358Z,15.35
2022-10-01T15:17:52.825Z,12.20
2022-10-01T15:20:19.786Z,16.40
2022-10-01T15:22:49.400Z,19.38
2022-10-01T15:25:22.220Z,13.90
2022-10-01T15:27:50.036Z,24.58
2022-10-01T15:30:18.451Z,15.25
2022-10-01T15:32:48.198Z,17.70
2022-10-01T15:35:19.509Z,18.85
2022-10-01T15:37:50.357Z,19.00
2022-10-01T15:40:27.826Z,19.75
2022-10-01T15:43:26.280Z,13.27
2022-10-01T15:46:05.267Z,13.32
2022-10-01T15:48:33.012Z,20.23
2022-10-01T15:51:03.291Z,16.58
2022-10-01T15:53:31.662Z,17.08
2022-10-01T15:56:00.453Z,18.27
2022-10-01T15:58:36.742Z,12.57
2022-10-01T16:01:09.131Z,15.25
2022-10-01T16:04:00.651Z,8.63
2022-10-01T16:06:37.721Z,20.90
2022-10-01T16:09:17.576Z,13.18
2022-10-01T16:11:59.649Z,11.88
2022-10-01T16:14:40.890Z,14.73
2022-10-01T16:17:16.951Z,12.25
2022-10-01T16:19:47.166Z,14.23
2022-10-01T16:22:24.548Z,13.60
2022-10-01T16:24:57.577Z,13.90
2022-10-01T16:30:09.921Z,14.73
2022-10-01T16:32:37.041Z,13.57
2022-10-01T16:35:23.269Z,15.93
2022-10-01T16:37:52.990Z,24.13
2022-10-01T16:40:24.043Z,19.48
2022-10-01T16:42:51.612Z,15.43
2022-10-01T16:45:22.638Z,18.90
2022-10-01T16:47:50.329Z,21.58
2022-10-01T16:50:19.442Z,17.05
2022-10-01T16:52:46.380Z,20.27
2022-10-01T16:55:23.361Z,22.02
2022-10-01T16:57:51.062Z,23.15
2022-10-01T17:00:20.054Z,10.63
2022-10-01T17:02:47.281Z,15.48
2022-10-01T17:05:25.911Z,16.85
2022-10-01T17:07:53.907Z,13.05
2022-10-01T17:10:23.534Z,15.20
2022-10-01T17:12:50.562Z,19.02
2022-10-01T17:15:23.265Z,19.60
2022-10-01T17:17:50.224Z,17.40
2022-10-01T17:20:17.259Z,14.90
2022-10-01T17:22:44.367Z,12.32
2022-10-01T17:25:16.685Z,19.92
2022-10-01T17:27:43.753Z,11.48
2022-10-01T17:30:11.449Z,20.60
2022-10-01T17:32:40.121Z,19.38
2022-10-01T17:35:07.782Z,17.58
2022-10-01T17:37:34.838Z,21.05
2022-10-01T17:40:02.257Z,20.02
2022-10-01T17:42:29.358Z,18.20
2022-10-01T17:44:56.268Z,13.77
2022-10-01T17:47:23.413Z,17.20
2022-10-01T17:49:50.270Z,12.02
2022-10-01T17:52:18.136Z,17.80
2022-10-01T17:54:45.386Z,14.13
2022-10-01T17:57:12.590Z,21.98
2022-10-01T17:59:39.503Z,17.02
2022-10-01T18:02:23.653Z,13.38
2022-10-01T18:04:54.539Z,25.92
2022-10-01T18:07:21.586Z,23.35
2022-10-01T18:09:48.404Z,16.75
2022-10-01T18:12:15.799Z,17.30
2022-10-01T18:14:43.221Z,12.05
2022-10-01T18:17:10.119Z,14.07
2022-10-01T18:22:24.158Z,15.32
2022-10-01T18:24:51.030Z,15.40
2022-10-01T18:27:18.047Z,14.88
2022-10-01T18:29:44.889Z,20.45
2022-10-01T18:32:19.923Z,14.80
2022-10-01T18:35:00.347Z,16.98
2022-10-01T18:37:40.476Z,12.45
2022-10-01T18:40:20.785Z,19.67
2022-10-01T18:43:15.726Z,15.75
2022-10-01T18:46:19.292Z,13.10
2022-10-01T18:49:07.628Z,12.73
2022-10-01T18:51:51.083Z,14.50
2022-10-01T18:54:40.659Z,16.55
2022-10-01T18:57:33.819Z,11.48
2022-10-01T19:00:23.297Z,9.90
2022-10-01T19:03:29.331Z,12.65
2022-10-01T19:06:11.912Z,9.20
2022-10-01T19:08:59.955Z,10.00
2022-10-01T19:11:54.778Z,8.43
2022-10-01T19:14:41.899Z,7.25
2022-10-01T19:17:11.736Z,6.45
2022-10-01T19:19:57.542Z,8.63
2022-10-01T19:23:10.543Z,11.45
2022-10-01T19:25:51.097Z,10.65
2022-10-01T19:28:48.493Z,9.73
2022-10-01T19:31:33.891Z,8.38
2022-10-01T19:34:09.924Z,9.15
2022-10-01T19:36:47.205Z,10.10
2022-10-01T19:39:23.220Z,11.98
2022-10-01T19:42:08.277Z,9.57
2022-10-01T19:44:53.835Z,19.02
2022-10-01T19:47:27.170Z,7.90
2022-10-01T19:49:58.853Z,11.45
2022-10-01T19:52:28.880Z,14.38
2022-10-01T19:55:00.302Z,13.60
2022-10-01T19:57:29.640Z,8.68
2022-10-01T20:00:09.608Z,13.85
2022-10-01T20:03:10.024Z,11.88
2022-10-01T20:05:53.386Z,11.35
2022-10-01T20:11:22.003Z,14.85
2022-10-01T20:14:08.013Z,11.00
2022-10-01T20:16:43.834Z,15.02
2022-10-01T20:19:37.279Z,16.52
2022-10-01T20:22:31.837Z,14.95
2022-10-01T20:25:03.741Z,15.27
2022-10-01T20:27:51.875Z,21.80
2022-10-01T20:30:20.435Z,17.23
2022-10-01T20:33:20.044Z,13.68
2022-10-01T20:35:58.931Z,15.93
2022-10-01T20:38:34.545Z,16.10
2022-10-01T20:41:09.999Z,9.82
2022-10-01T20:43:49.380Z,9.70
2022-10-01T20:46:38.949Z,11.98
2022-10-01T20:49:29.956Z,17.65
2022-10-01T20:52:06.438Z,15.88
2022-10-01T20:54:38.219Z,17.58
2022-10-01T20:57:22.794Z,16.05
2022-10-01T20:59:53.354Z,16.45
2022-10-01T21:02:28.711Z,14.68
2022-10-01T21:05:29.299Z,9.93
2022-10-01T21:08:01.419Z,15.35
2022-10-01T21:10:48.635Z,9.93
2022-10-01T21:13:32.373Z,13.95
2022-10-01T21:16:37.305Z,15.13
2022-10-01T21:19:23.663Z,13.93
2022-10-01T21:22:06.459Z,17.08
2022-10-01T21:24:51.824Z,12.18
2022-10-01T21:27:37.603Z,11.88
2022-10-01T21:30:14.165Z,14.98
2022-10-01T21:33:02.468Z,13.20
2022-10-01T21:35:32.524Z,10.90
2022-10-01T21:38:02.195Z,11.55
2022-10-01T21:40:35.236Z,14.10
2022-10-01T21:43:12.356Z,11.13
2022-10-01T21:45:58.536Z,12.55
2022-10-01T21:48:37.109Z,7.35
2022-10-01T21:52:02.486Z,9.77
2022-10-01T21:54:48.588Z,12.57
2022-10-01T21:57:44.050Z,12.32
2022-10-01T22:00:21.447Z,9.50
2022-10-01T22:03:05.412Z,12.73
2022-10-01T22:05:56.859Z,13.73
2022-10-01T22:08:46.554Z,10.90
2022-10-01T22:11:18.712Z,18.58
2022-10-01T22:13:57.256Z,9.60
2022-10-01T22:16:29.208Z,11.48
2022-10-01T22:19:00.612Z,10.35
2022-10-01T22:21:44.675Z,7.70
2022-10-01T22:24:18.665Z,15.25
2022-10-01T22:26:53.828Z,15.38
2022-10-01T22:29:27.617Z,12.90
2022-10-01T22:32:01.210Z,17.65
2022-10-01T22:34:34.160Z,17.67
2022-10-01T22:37:09.928Z,20.38
2022-10-01T22:39:42.520Z,13.32
2022-10-01T22:42:16.198Z,20.30
2022-10-01T22:44:43.821Z,17.17
2022-10-01T22:47:37.529Z,14.90
2022-10-01T22:52:51.314Z,10.90
2022-10-01T22:55:18.123Z,12.00
2022-10-01T22:58:12.456Z,23.83
2022-10-01T23:01:02.418Z,15.52
2022-10-01T23:04:10.465Z,12.35
2022-10-01T23:06:46.470Z,16.92
2022-10-01T23:09:31.903Z,22.15
2022-10-01T23:12:10.818Z,17.88
2022-10-01T23:15:01.012Z,13.80
2022-10-01T23:17:46.632Z,14.05
2022-10-01T23:20:35.741Z,17.75
2022-10-01T23:23:29.660Z,15.40
2022-10-01T23:26:14.761Z,15.43
2022-10-01T23:28:50.615Z,18.77
2022-10-01T23:32:00.013Z,14.00
2022-10-01T23:34:57.667Z,18.25
2022-10-01T23:37:51.628Z,17.33
2022-10-01T23:40:22.417Z,20.50
2022-10-01T23:43:25.841Z,20.83
2022-10-01T23:46:30.267Z,19.58
2022-10-01T23:49:05.045Z,17.00
2022-10-01T23:51:38.076Z,18.60
2022-10-01T23:54:42.007Z,18.95
2022-10-01T23:59:53.660Z,19.65
